createdAt,value
2017-12-05T00:02:08.761Z,5.70
2017-12-05T00:04:36.301Z,5.70
2017-12-05T00:07:04.507Z,5.60
2017-12-05T00:09:31.957Z,5.60
2017-12-05T00:11:59.388Z,5.60
2017-12-05T00:14:27.613Z,5.60
2017-12-05T00:16:55.044Z,5.60
2017-12-05T00:19:22.654Z,5.60
2017-12-05T00:21:50.077Z,5.60
2017-12-05T00:24:17.515Z,5.60
2017-12-05T00:26:45.522Z,5.60
2017-12-05T00:29:12.992Z,5.50
2017-12-05T00:31:40.430Z,5.50
2017-12-05T00:34:08.824Z,5.50
2017-12-05T00:36:36.285Z,5.50
2017-12-05T00:39:03.713Z,5.40
2017-12-05T00:41:31.190Z,5.40
2017-12-05T00:43:58.622Z,5.40
2017-12-05T00:46:26.049Z,5.40
2017-12-05T00:48:54.408Z,5.40
2017-12-05T00:51:21.871Z,5.40
2017-12-05T00:53:49.300Z,5.40
2017-12-05T00:56:16.773Z,5.40
2017-12-05T00:58:44.205Z,5.40
2017-12-05T01:01:11.648Z,5.40
2017-12-05T01:03:39.133Z,5.30
2017-12-05T01:06:06.572Z,5.30
2017-12-05T01:08:34.012Z,5.30
2017-12-05T01:11:01.668Z,5.30
2017-12-05T01:13:29.132Z,5.30
2017-12-05T01:15:56.566Z,5.30
2017-12-05T01:18:24.812Z,5.30
2017-12-05T01:20:52.249Z,5.30
2017-12-05T01:23:19.685Z,5.30
2017-12-05T01:25:47.256Z,5.30
2017-12-05T01:28:14.833Z,5.30
2017-12-05T01:30:42.429Z,5.20
2017-12-05T01:33:10.630Z,5.20
2017-12-05T01:35:38.201Z,5.20
2017-12-05T01:38:05.632Z,5.20
2017-12-05T01:40:33.837Z,5.20
2017-12-05T01:43:05.716Z,5.20
2017-12-05T01:45:33.161Z,5.20
2017-12-05T01:48:00.673Z,5.20
2017-12-05T01:50:28.925Z,5.10
2017-12-05T01:52:56.362Z,5.10
2017-12-05T01:55:23.788Z,5.10
2017-12-05T01:57:51.250Z,5.20
2017-12-05T02:00:18.837Z,5.10
2017-12-05T02:02:46.271Z,5.10
2017-12-05T02:05:13.726Z,5.10
2017-12-05T02:07:41.404Z,5.10
2017-12-05T02:10:08.849Z,5.10
2017-12-05T02:12:36.309Z,5.10
2017-12-05T02:15:03.733Z,5.10
2017-12-05T02:17:31.933Z,5.10
2017-12-05T02:19:59.437Z,5.10
2017-12-05T02:22:26.873Z,5.10
2017-12-05T02:24:54.325Z,5.10
2017-12-05T02:27:21.886Z,5.10
2017-12-05T02:29:49.533Z,5.10
2017-12-05T02:32:16.969Z,5.00
2017-12-05T02:34:44.401Z,5.00
2017-12-05T02:37:11.859Z,5.00
2017-12-05T02:39:39.312Z,5.00
2017-12-05T02:42:06.749Z,5.00
2017-12-05T02:44:34.298Z,5.00
2017-12-05T02:47:01.817Z,5.00
2017-12-05T02:49:34.953Z,4.90
2017-12-05T02:52:02.385Z,4.90
2017-12-05T02:57:02.204Z,4.90
2017-12-05T02:59:29.660Z,4.90
2017-12-05T03:01:57.096Z,4.90
2017-12-05T03:04:29.361Z,4.90
2017-12-05T03:06:57.566Z,4.90
2017-12-05T03:09:25.020Z,4.90
2017-12-05T03:11:52.448Z,4.90
2017-12-05T03:14:20.668Z,4.90
2017-12-05T03:16:48.121Z,4.90
2017-12-05T03:19:15.556Z,4.90
2017-12-05T03:21:43.081Z,4.90
2017-12-05T03:24:17.160Z,4.90
2017-12-05T03:26:50.000Z,4.90
2017-12-05T03:29:18.212Z,5.00
2017-12-05T03:31:45.715Z,4.90
2017-12-05T03:34:13.144Z,4.90
2017-12-05T03:36:40.572Z,4.90
2017-12-05T03:39:08.048Z,4.90
2017-12-05T03:41:35.488Z,4.90
2017-12-05T03:44:02.920Z,4.90
2017-12-05T03:46:31.453Z,4.90
2017-12-05T03:48:58.905Z,4.90
2017-12-05T03:51:26.337Z,4.90
2017-12-05T03:53:53.796Z,4.90
2017-12-05T03:56:21.235Z,4.90
2017-12-05T03:58:49.461Z,4.90
2017-12-05T04:01:16.916Z,4.90
2017-12-05T04:03:44.351Z,4.90
2017-12-05T04:06:11.859Z,4.90
2017-12-05T04:08:40.061Z,4.90
2017-12-05T04:11:07.522Z,4.90
2017-12-05T04:13:34.965Z,4.90
2017-12-05T04:16:02.441Z,4.90
2017-12-05T04:18:30.648Z,4.90
2017-12-05T04:20:58.133Z,4.90
2017-12-05T04:23:29.368Z,4.90
2017-12-05T04:25:56.832Z,4.90
2017-12-05T04:28:25.034Z,4.90
2017-12-05T04:30:52.462Z,4.90
2017-12-05T04:33:19.900Z,4.90
2017-12-05T04:35:47.498Z,4.90
2017-12-05T04:38:15.725Z,4.90
2017-12-05T04:40:43.161Z,4.90
2017-12-05T04:43:10.642Z,4.90
2017-12-05T04:45:38.081Z,4.90
2017-12-05T04:48:05.532Z,4.90
2017-12-05T04:50:33.145Z,4.90
2017-12-05T04:53:00.656Z,4.90
2017-12-05T04:55:28.101Z,4.90
2017-12-05T04:57:55.532Z,4.90
2017-12-05T05:00:23.780Z,4.90
2017-12-05T05:02:51.220Z,4.90
2017-12-05T05:05:18.665Z,4.90
2017-12-05T05:07:46.261Z,4.90
2017-12-05T05:10:13.696Z,4.90
2017-12-05T05:12:41.156Z,4.90
2017-12-05T05:15:08.594Z,4.90
2017-12-05T05:17:36.061Z,4.90
2017-12-05T05:20:03.492Z,4.90
2017-12-05T05:22:31.068Z,4.90
2017-12-05T05:24:58.525Z,4.90
2017-12-05T05:27:26.305Z,4.90
2017-12-05T05:29:54.875Z,4.90
2017-12-05T05:32:22.498Z,4.90
2017-12-05T05:34:50.705Z,4.90
2017-12-05T05:37:22.481Z,4.80
2017-12-05T05:39:49.917Z,4.80
2017-12-05T05:42:17.381Z,4.90
2017-12-05T05:44:44.853Z,4.90
2017-12-05T05:47:12.313Z,4.90
2017-12-05T05:49:39.839Z,4.90
2017-12-05T05:52:07.362Z,4.90
2017-12-05T05:54:34.797Z,4.80
2017-12-05T05:59:53.890Z,4.80
2017-12-05T06:02:21.364Z,4.80
2017-12-05T06:04:48.809Z,4.80
2017-12-05T06:07:16.247Z,4.80
2017-12-05T06:12:41.158Z,4.80
2017-12-05T06:15:08.621Z,4.80
2017-12-05T06:17:36.096Z,4.80
2017-12-05T06:20:14.381Z,4.80
2017-12-05T06:22:41.838Z,4.80
2017-12-05T06:25:11.275Z,4.80
2017-12-05T06:27:39.005Z,4.80
2017-12-05T06:30:06.466Z,4.80
2017-12-05T06:32:34.269Z,4.80
2017-12-05T06:35:01.740Z,4.80
2017-12-05T06:37:39.805Z,4.80
2017-12-05T06:40:07.344Z,4.80
2017-12-05T06:42:34.777Z,4.80
2017-12-05T06:45:03.288Z,4.80
2017-12-05T06:47:31.554Z,4.80
2017-12-05T06:49:59.149Z,4.80
2017-12-05T06:52:26.584Z,4.80
2017-12-05T06:57:45.244Z,4.80
2017-12-05T07:00:12.728Z,4.80
2017-12-05T07:02:40.165Z,4.80
2017-12-05T07:05:07.605Z,4.80
2017-12-05T07:07:35.233Z,4.80
2017-12-05T07:10:03.941Z,4.80
2017-12-05T07:12:32.144Z,4.80
2017-12-05T07:14:59.629Z,4.90
2017-12-05T07:17:27.057Z,4.90
2017-12-05T07:19:55.285Z,4.90
2017-12-05T07:22:22.765Z,4.90
2017-12-05T07:24:50.206Z,4.90
2017-12-05T07:27:18.405Z,4.90
2017-12-05T07:29:46.404Z,4.90
2017-12-05T07:32:19.928Z,4.90
2017-12-05T07:34:52.799Z,4.90
2017-12-05T07:37:20.230Z,4.90
2017-12-05T07:39:47.821Z,4.90
2017-12-05T07:42:15.260Z,4.90
2017-12-05T07:44:42.704Z,4.90
2017-12-05T07:47:10.184Z,4.90
2017-12-05T07:49:40.098Z,4.90
2017-12-05T07:52:07.530Z,4.90
2017-12-05T07:54:34.984Z,4.90
2017-12-05T07:57:02.430Z,4.90
2017-12-05T07:59:29.892Z,4.90
2017-12-05T08:01:57.341Z,4.90
2017-12-05T08:04:25.796Z,4.90
2017-12-05T08:06:53.232Z,4.90
2017-12-05T08:09:20.680Z,4.90
2017-12-05T08:11:48.192Z,4.90
2017-12-05T08:14:20.433Z,5.00
2017-12-05T08:16:47.928Z,5.00
2017-12-05T08:19:16.112Z,5.00
2017-12-05T08:21:43.753Z,5.00
2017-12-05T08:24:11.957Z,5.00
2017-12-05T08:26:39.421Z,5.00
2017-12-05T08:29:13.649Z,5.10
2017-12-05T08:31:42.893Z,5.10
2017-12-05T08:34:11.097Z,5.10
2017-12-05T08:36:38.624Z,5.10
2017-12-05T08:39:06.861Z,5.10
2017-12-05T08:41:34.349Z,5.10
2017-12-05T08:44:01.785Z,5.20
2017-12-05T08:46:29.225Z,5.30
2017-12-05T08:48:56.722Z,5.40
2017-12-05T08:51:24.216Z,5.50
2017-12-05T08:53:51.708Z,5.40
2017-12-05T08:56:19.182Z,5.40
2017-12-05T08:58:46.621Z,5.40
2017-12-05T09:01:14.054Z,5.40
2017-12-05T09:03:41.579Z,5.40
2017-12-05T09:06:09.021Z,5.40
2017-12-05T09:08:36.512Z,5.40
2017-12-05T09:11:03.944Z,5.40
2017-12-05T09:13:31.376Z,5.30
2017-12-05T09:15:58.848Z,5.30
2017-12-05T09:18:27.847Z,5.30
2017-12-05T09:20:55.312Z,5.30
2017-12-05T09:23:22.821Z,5.30
2017-12-05T09:25:50.732Z,5.30
2017-12-05T09:28:18.197Z,5.30
2017-12-05T09:30:45.711Z,5.30
2017-12-05T09:33:13.140Z,5.30
2017-12-05T09:35:41.377Z,5.30
2017-12-05T09:38:08.855Z,5.30
2017-12-05T09:40:36.288Z,5.30
2017-12-05T09:43:03.732Z,5.30
2017-12-05T09:45:32.752Z,5.30
2017-12-05T09:48:00.223Z,5.30
2017-12-05T09:50:27.648Z,5.30
2017-12-05T09:52:55.095Z,5.30
2017-12-05T09:55:22.565Z,5.30
2017-12-05T09:57:50.017Z,5.30
2017-12-05T10:00:17.471Z,5.30
2017-12-05T10:02:45.669Z,5.30
2017-12-05T10:05:13.301Z,5.30
2017-12-05T10:07:52.884Z,5.30
2017-12-05T10:10:20.321Z,5.30
2017-12-05T10:12:47.764Z,5.40
2017-12-05T10:15:15.227Z,5.40
2017-12-05T10:17:42.702Z,5.30
2017-12-05T10:20:10.144Z,5.30
2017-12-05T10:22:37.645Z,5.30
2017-12-05T10:25:06.204Z,5.40
2017-12-05T10:27:33.637Z,5.30
2017-12-05T10:30:01.137Z,5.40
2017-12-05T10:32:28.573Z,5.30
2017-12-05T10:34:56.034Z,5.30
2017-12-05T10:37:23.482Z,5.40
2017-12-05T10:39:50.972Z,5.40
2017-12-05T10:42:18.410Z,5.40
2017-12-05T10:44:45.855Z,5.40
2017-12-05T10:47:13.413Z,5.40
2017-12-05T10:49:41.825Z,5.40
2017-12-05T10:52:09.760Z,5.40
2017-12-05T10:54:37.201Z,5.40
2017-12-05T10:57:04.646Z,5.50
2017-12-05T10:59:32.111Z,5.50
2017-12-05T11:01:59.541Z,5.50
2017-12-05T11:04:27.948Z,5.50
2017-12-05T11:06:55.386Z,5.50
2017-12-05T11:09:22.825Z,5.60
2017-12-05T11:11:51.074Z,5.60
2017-12-05T11:14:18.520Z,5.50
2017-12-05T11:16:46.113Z,5.60
2017-12-05T11:19:20.109Z,5.60
2017-12-05T11:21:47.729Z,5.60
2017-12-05T11:24:15.201Z,5.60
2017-12-05T11:26:42.653Z,5.70
2017-12-05T11:29:10.160Z,5.80
2017-12-05T11:31:38.450Z,5.80
2017-12-05T11:34:06.656Z,5.80
2017-12-05T11:36:34.216Z,5.70
2017-12-05T11:39:01.660Z,5.70
2017-12-05T11:41:29.254Z,5.70
2017-12-05T11:43:56.717Z,5.70
2017-12-05T11:46:24.154Z,5.70
2017-12-05T11:48:51.618Z,5.60
2017-12-05T11:51:19.086Z,5.60
2017-12-05T11:53:46.520Z,5.60
2017-12-05T11:56:14.066Z,5.60
2017-12-05T11:58:41.517Z,5.60
2017-12-05T12:01:08.982Z,5.70
2017-12-05T12:03:36.423Z,5.60
2017-12-05T12:06:04.665Z,5.60
2017-12-05T12:08:37.147Z,5.60
2017-12-05T12:11:05.910Z,5.70
2017-12-05T12:13:33.349Z,5.70
2017-12-05T12:16:00.793Z,5.70
2017-12-05T12:18:28.391Z,5.70
2017-12-05T12:20:55.857Z,5.70
2017-12-05T12:23:24.732Z,5.70
2017-12-05T12:25:52.200Z,5.70
2017-12-05T12:28:19.912Z,5.80
2017-12-05T12:30:47.373Z,5.80
2017-12-05T12:33:14.825Z,5.80
2017-12-05T12:35:43.358Z,5.80
2017-12-05T12:38:10.794Z,5.70
2017-12-05T12:40:42.000Z,5.80
2017-12-05T12:43:10.224Z,5.80
2017-12-05T12:46:00.481Z,5.80
2017-12-05T12:48:27.955Z,5.80
2017-12-05T12:50:55.391Z,5.80
2017-12-05T12:53:27.601Z,5.80
2017-12-05T12:55:55.046Z,5.80
2017-12-05T12:58:22.483Z,5.80
2017-12-05T13:00:50.709Z,5.80
2017-12-05T13:03:18.164Z,5.80
2017-12-05T13:05:45.630Z,5.80
2017-12-05T13:08:13.094Z,5.80
2017-12-05T13:10:40.631Z,5.90
2017-12-05T13:13:08.062Z,5.90
2017-12-05T13:15:35.573Z,5.90
2017-12-05T13:18:03.038Z,5.90
2017-12-05T13:20:30.467Z,5.90
2017-12-05T13:22:58.046Z,5.90
2017-12-05T13:25:25.554Z,5.90
2017-12-05T13:27:52.992Z,5.90
2017-12-05T13:30:22.390Z,5.90
2017-12-05T13:32:55.734Z,5.90
2017-12-05T13:35:23.197Z,5.90
2017-12-05T13:37:50.641Z,6.00
2017-12-05T13:40:18.087Z,6.00
2017-12-05T13:42:45.649Z,6.00
2017-12-05T13:45:13.110Z,6.00
2017-12-05T13:47:43.624Z,6.00
2017-12-05T13:50:11.064Z,6.00
2017-12-05T13:52:39.272Z,6.00
2017-12-05T13:55:07.061Z,6.00
2017-12-05T13:57:34.517Z,6.00
2017-12-05T14:00:01.955Z,6.00
2017-12-05T14:02:29.492Z,6.00
2017-12-05T14:04:56.955Z,6.00
2017-12-05T14:07:25.130Z,5.90
2017-12-05T14:09:52.596Z,5.90
2017-12-05T14:12:20.029Z,5.90
2017-12-05T14:14:47.515Z,5.90
2017-12-05T14:17:14.957Z,5.90
2017-12-05T14:19:42.474Z,5.90
2017-12-05T14:22:09.908Z,5.90
2017-12-05T14:24:37.456Z,5.90
2017-12-05T14:27:05.673Z,5.90
2017-12-05T14:29:33.888Z,5.90
2017-12-05T14:32:01.704Z,5.90
2017-12-05T14:34:29.181Z,5.90
2017-12-05T14:36:57.382Z,5.90
2017-12-05T14:39:25.016Z,5.90
2017-12-05T14:41:53.226Z,5.90
2017-12-05T14:44:20.661Z,5.80
2017-12-05T14:46:52.720Z,5.80
2017-12-05T14:49:20.939Z,5.80
2017-12-05T14:51:53.327Z,5.80
2017-12-05T14:54:20.789Z,5.80
2017-12-05T14:56:48.220Z,5.80
2017-12-05T14:59:16.527Z,5.80
2017-12-05T15:01:47.345Z,5.80
2017-12-05T15:04:14.785Z,5.80
2017-12-05T15:06:42.249Z,5.80
2017-12-05T15:09:09.704Z,5.80
2017-12-05T15:11:37.169Z,5.80
2017-12-05T15:14:04.620Z,5.80
2017-12-05T15:16:32.353Z,5.80
2017-12-05T15:19:00.557Z,5.80
2017-12-05T15:21:29.898Z,5.80
2017-12-05T15:23:57.389Z,5.80
2017-12-05T15:26:24.829Z,5.80
2017-12-05T15:28:53.093Z,5.80
2017-12-05T15:31:20.534Z,5.70
2017-12-05T15:33:48.493Z,5.80
2017-12-05T15:36:15.939Z,5.70
2017-12-05T15:38:43.377Z,5.70
2017-12-05T15:41:10.839Z,5.70
2017-12-05T15:43:38.265Z,5.70
2017-12-05T15:46:06.489Z,5.70
2017-12-05T15:48:33.953Z,5.60
2017-12-05T15:51:01.548Z,5.70
2017-12-05T15:53:29.909Z,5.70
2017-12-05T15:55:57.392Z,5.70
2017-12-05T15:58:25.629Z,5.70
2017-12-05T16:00:53.065Z,5.60
2017-12-05T16:03:20.507Z,5.70
2017-12-05T16:05:47.981Z,5.70
2017-12-05T16:08:15.425Z,5.60
2017-12-05T16:10:43.029Z,5.60
2017-12-05T16:13:10.477Z,5.70
2017-12-05T16:15:37.912Z,5.60
2017-12-05T16:18:05.399Z,5.60
2017-12-05T16:20:32.838Z,5.60
2017-12-05T16:23:00.285Z,5.60
2017-12-05T16:25:27.868Z,5.60
2017-12-05T16:27:55.308Z,5.60
2017-12-05T16:30:23.044Z,5.60
2017-12-05T16:32:57.208Z,5.60
2017-12-05T16:35:24.721Z,5.60
2017-12-05T16:37:52.152Z,5.60
2017-12-05T16:40:20.361Z,5.60
2017-12-05T16:42:47.953Z,5.50
2017-12-05T16:45:15.420Z,5.60
2017-12-05T16:47:42.861Z,5.60
2017-12-05T16:50:10.318Z,5.60
2017-12-05T16:52:37.797Z,5.60
2017-12-05T16:55:05.246Z,5.60
2017-12-05T16:57:32.891Z,5.60
2017-12-05T17:00:00.867Z,5.60
2017-12-05T17:02:28.334Z,5.60
2017-12-05T17:04:55.800Z,5.60
2017-12-05T17:07:23.253Z,5.60
2017-12-05T17:09:50.704Z,5.60
2017-12-05T17:12:18.145Z,5.60
2017-12-05T17:14:45.614Z,5.60
2017-12-05T17:17:13.064Z,5.60
2017-12-05T17:19:40.665Z,5.60
2017-12-05T17:22:08.100Z,5.60
2017-12-05T17:24:35.561Z,5.60
2017-12-05T17:27:02.996Z,5.60
2017-12-05T17:29:46.361Z,5.60
2017-12-05T17:32:13.811Z,5.60
2017-12-05T17:34:41.452Z,5.60
2017-12-05T17:37:08.897Z,5.60
2017-12-05T17:39:37.314Z,5.50
2017-12-05T17:42:06.090Z,5.50
2017-12-05T17:44:45.611Z,5.50
2017-12-05T17:47:13.104Z,5.50
2017-12-05T17:49:40.541Z,5.50
2017-12-05T17:52:07.978Z,5.60
2017-12-05T17:54:35.565Z,5.60
2017-12-05T17:57:03.005Z,5.60
2017-12-05T17:59:30.466Z,5.50
2017-12-05T18:01:57.929Z,5.60
2017-12-05T18:04:25.364Z,5.60
2017-12-05T18:09:45.406Z,5.50
2017-12-05T18:12:12.926Z,5.50
2017-12-05T18:14:40.385Z,5.50
2017-12-05T18:17:07.825Z,5.50
2017-12-05T18:19:35.289Z,5.50
2017-12-05T18:22:02.720Z,5.50
2017-12-05T18:24:30.989Z,5.50
2017-12-05T18:26:58.425Z,5.50
2017-12-05T18:29:29.595Z,5.50
2017-12-05T18:31:57.789Z,5.50
2017-12-05T18:34:25.820Z,5.50
2017-12-05T18:36:53.257Z,5.50
2017-12-05T18:39:21.656Z,5.60
2017-12-05T18:41:49.121Z,5.60
2017-12-05T18:44:16.565Z,5.60
2017-12-05T18:46:44.121Z,5.60
2017-12-05T18:49:11.552Z,5.50
2017-12-05T18:51:39.018Z,5.50
2017-12-05T18:54:22.300Z,5.50
2017-12-05T18:56:50.537Z,5.50
2017-12-05T18:59:18.025Z,5.50
2017-12-05T19:01:45.464Z,5.50
2017-12-05T19:04:12.893Z,5.50
2017-12-05T19:06:40.508Z,5.50
2017-12-05T19:09:19.778Z,5.50
2017-12-05T19:11:48.441Z,5.50
2017-12-05T19:14:15.877Z,5.50
2017-12-05T19:16:44.074Z,5.50
2017-12-05T19:19:14.028Z,5.50
2017-12-05T19:21:41.796Z,5.50
2017-12-05T19:24:09.261Z,5.50
2017-12-05T19:26:36.777Z,5.50
2017-12-05T19:29:04.512Z,5.50
2017-12-05T19:31:31.969Z,5.50
2017-12-05T19:34:00.177Z,5.50
2017-12-05T19:36:31.337Z,5.50
2017-12-05T19:38:58.792Z,5.50
2017-12-05T19:41:26.263Z,5.50
2017-12-05T19:43:53.845Z,5.50
2017-12-05T19:46:21.295Z,5.50
2017-12-05T19:48:48.749Z,5.50
2017-12-05T19:51:16.210Z,5.50
2017-12-05T19:53:44.533Z,5.50
2017-12-05T19:56:12.752Z,5.50
2017-12-05T19:58:40.192Z,5.50
2017-12-05T20:01:07.840Z,5.50
2017-12-05T20:03:35.277Z,5.50
2017-12-05T20:06:03.477Z,5.50
2017-12-05T20:08:31.720Z,5.50
2017-12-05T20:10:59.921Z,5.50
2017-12-05T20:13:27.362Z,5.50
2017-12-05T20:15:55.789Z,5.50
2017-12-05T20:18:23.224Z,5.50
2017-12-05T20:20:50.665Z,5.50
2017-12-05T20:23:19.361Z,5.50
2017-12-05T20:25:46.792Z,5.50
2017-12-05T20:28:15.273Z,5.50
2017-12-05T20:30:44.524Z,5.50
2017-12-05T20:33:13.366Z,5.50
2017-12-05T20:35:41.580Z,5.50
2017-12-05T20:38:09.017Z,5.50
2017-12-05T20:40:36.633Z,5.50
2017-12-05T20:43:04.128Z,5.50
2017-12-05T20:45:42.196Z,5.50
2017-12-05T20:48:09.799Z,5.50
2017-12-05T20:50:38.178Z,5.50
2017-12-05T20:53:05.659Z,5.50
2017-12-05T20:55:33.158Z,5.50
2017-12-05T20:58:00.598Z,5.50
2017-12-05T21:00:28.038Z,5.50
2017-12-05T21:02:55.541Z,5.50
2017-12-05T21:05:22.976Z,5.50
2017-12-05T21:07:50.413Z,5.50
2017-12-05T21:10:18.893Z,5.50
2017-12-05T21:12:46.338Z,5.50
2017-12-05T21:15:13.801Z,5.50
2017-12-05T21:17:42.001Z,5.50
2017-12-05T21:20:10.254Z,5.50
2017-12-05T21:22:37.704Z,5.40
2017-12-05T21:25:08.177Z,5.50
2017-12-05T21:27:36.020Z,5.50
2017-12-05T21:30:03.725Z,5.50
2017-12-05T21:32:52.882Z,5.50
2017-12-05T21:35:20.321Z,5.50
2017-12-05T21:37:47.820Z,5.50
2017-12-05T21:40:16.022Z,5.50
2017-12-05T21:42:43.461Z,5.50
2017-12-05T21:45:11.103Z,5.50
2017-12-05T21:47:42.333Z,5.50
2017-12-05T21:50:09.776Z,5.50
2017-12-05T21:52:37.254Z,5.50
2017-12-05T21:55:04.691Z,5.50
2017-12-05T21:57:32.123Z,5.50
2017-12-05T21:59:59.713Z,5.40
2017-12-05T22:02:27.154Z,5.40
2017-12-05T22:04:54.615Z,5.40
2017-12-05T22:07:22.053Z,5.40
2017-12-05T22:09:49.502Z,5.40
2017-12-05T22:12:16.966Z,5.40
2017-12-05T22:14:44.434Z,5.40
2017-12-05T22:17:11.871Z,5.40
2017-12-05T22:19:41.389Z,5.50
2017-12-05T22:22:08.824Z,5.40
2017-12-05T22:24:36.374Z,5.40
2017-12-05T22:27:04.581Z,5.40
2017-12-05T22:29:32.136Z,5.40
2017-12-05T22:31:59.601Z,5.40
2017-12-05T22:34:27.050Z,5.40
2017-12-05T22:36:54.838Z,5.40
2017-12-05T22:39:22.283Z,5.40
2017-12-05T22:41:49.720Z,5.40
2017-12-05T22:44:17.182Z,5.40
2017-12-05T22:46:44.646Z,5.40
2017-12-05T22:49:12.086Z,5.40
2017-12-05T22:51:39.548Z,5.40
2017-12-05T22:54:06.988Z,5.40
2017-12-05T22:56:35.316Z,5.40
2017-12-05T22:59:02.756Z,5.40
2017-12-05T23:01:31.164Z,5.40
2017-12-05T23:03:58.760Z,5.40
2017-12-05T23:06:28.204Z,5.40
2017-12-05T23:09:01.748Z,5.40
2017-12-05T23:11:29.248Z,5.40
2017-12-05T23:13:56.706Z,5.40
2017-12-05T23:16:25.143Z,5.40
2017-12-05T23:18:52.602Z,5.40
2017-12-05T23:21:20.038Z,5.40
2017-12-05T23:23:52.802Z,5.40
2017-12-05T23:26:20.457Z,5.40
2017-12-05T23:28:52.892Z,5.40
2017-12-05T23:31:21.120Z,5.40
2017-12-05T23:33:48.553Z,5.40
2017-12-05T23:36:16.483Z,5.40
2017-12-05T23:38:43.916Z,5.40
2017-12-05T23:41:17.616Z,5.40
2017-12-05T23:43:45.048Z,5.40
2017-12-05T23:46:12.508Z,5.40
2017-12-05T23:48:39.950Z,5.40
2017-12-05T23:51:07.441Z,5.40
2017-12-05T23:53:34.872Z,5.30
2017-12-05T23:56:03.073Z,5.30
2017-12-05T23:58:30.628Z,5.30
